Airfield :
LOGIN :

Register | Disclaimer

   EN    FR    IT 

 










Legend :    VFR   Marginal VFR   IFR   Intensive IFR   Very Intensive IFR
Visi :
Ceiling :
>= 8 km
>= 3000ft
5 to 8 km
1000 to 3000 ft
1500m to 5 km
500 to 1000 ft
800 to 1500m
200 to 500 ft
< 800m
< 200 ft
Symbols :   Thunderstorms  Fog  Heavy snow  Heavy precipitations  Wind > 20 kt
SIGMETs :     Misc.  Thunderstorms  Icing  Turbulence  Mountain Waves  Volcanic Ashes






- Airport Elevation : 600 ft
- IATA code : VIE


LOWW - Vienna Schwechat

CURRENT METAR :
  • 041720Z 33007KT 9999 FEW050 25/13 Q1016 NOSIG

EXPIRED METARs :
  • 041650Z 32007KT CAVOK 26/12 Q1016 NOSIG
  • 041620Z 35006KT CAVOK 26/12 Q1016 NOSIG
  • 041550Z 33006KT CAVOK 25/11 Q1017 NOSIG
  • 041520Z 33006KT CAVOK 26/10 Q1017 NOSIG
  • 041450Z 32009KT CAVOK 26/10 Q1017 NOSIG

TAF TAF LOWW
Valid from the 04 at 18:00 until the 06 at 00:00 UTC


041715Z 0418/0524 32007KT CAVOK TX29/0515Z TN16/0503Z
BECMG 0420/0422 VRB03KT
BECMG 0506/0508 30010KT



MET'MAP, your aeronautical weather chart ! - Copyright ORBIFLY December 2007 - Disclaimer

ORBIFLY MET'MAP TEAM :

Programming & Development : Alexandra Zaïnal
Concept & original design : Baudouin d'Aumeries
Assistance for programming : Marc-Olivier Méhu
Technical & hardware support : Manuel Goepfert

Contact : metmap@orbifly.com




SOURCES & CREDITS :

   NOAA